N514RS KLAL-KEYW
Flight info
| Callsign | N514RS |
|---|---|
| Flight time | 0h 57m |
| Altitude | 24000 |
| Route | CROWD |
| Aircraft | STAR/L-SDFGRWY/S |
Departure
| Time | 2026-04-20 17:47 |
|---|---|
| Airport | Lakeland Linder International Airport (KLAL) |
Arrival
| Time | 2026-04-20 18:44 |
|---|---|
| Airport | Key West International Airport (KEYW) |
| Time | Latitude | Longitude | Altitude | Speed | Heading |
|---|---|---|---|---|---|
| 2026-04-20 17:22 | 27.98604 | -82.02099 | 140 ft | 0 kts | 4° |
| 2026-04-20 17:44 | 27.98586 | -82.02045 | 140 ft | 13 kts | 154° |
| 2026-04-20 17:45 | 27.98517 | -82.02029 | 138 ft | 8 kts | 208° |
| 2026-04-20 17:45 | 27.98471 | -82.02072 | 136 ft | 9 kts | 222° |
| 2026-04-20 17:45 | 27.98418 | -82.02104 | 136 ft | 7 kts | 167° |
| 2026-04-20 17:45 | 27.98382 | -82.02000 | 138 ft | 12 kts | 57° |
| 2026-04-20 17:46 | 27.98501 | -82.01870 | 143 ft | 43 kts | 44° |
| 2026-04-20 17:46 | 27.98782 | -82.01549 | 147 ft | 71 kts | 45° |
| 2026-04-20 17:46 | 27.99187 | -82.01095 | 150 ft | 94 kts | 45° |
| 2026-04-20 17:46 | 27.99741 | -82.00499 | 454 ft | 124 kts | 41° |
| 2026-04-20 17:47 | 28.00436 | -81.99789 | 992 ft | 142 kts | 42° |
| 2026-04-20 17:47 | 28.01153 | -81.99086 | 1816 ft | 134 kts | 21° |
| 2026-04-20 17:47 | 28.01991 | -81.99188 | 2671 ft | 118 kts | 321° |
| 2026-04-20 17:47 | 28.02305 | -82.00000 | 3365 ft | 120 kts | 276° |
| 2026-04-20 17:48 | 28.02367 | -82.00973 | 3992 ft | 129 kts | 272° |
| 2026-04-20 17:48 | 28.02388 | -82.02043 | 4619 ft | 143 kts | 270° |
| 2026-04-20 17:48 | 28.02183 | -82.03189 | 5244 ft | 158 kts | 237° |
| 2026-04-20 17:48 | 28.01332 | -82.04032 | 5871 ft | 169 kts | 216° |
| 2026-04-20 17:49 | 28.00324 | -82.04776 | 6489 ft | 181 kts | 213° |
| 2026-04-20 17:49 | 27.99210 | -82.05544 | 7116 ft | 193 kts | 211° |
| 2026-04-20 17:49 | 27.98014 | -82.06336 | 7743 ft | 204 kts | 211° |
| 2026-04-20 17:49 | 27.96760 | -82.07159 | 8369 ft | 212 kts | 211° |
| 2026-04-20 17:50 | 27.95461 | -82.08013 | 8996 ft | 218 kts | 211° |
| 2026-04-20 17:50 | 27.94136 | -82.08886 | 9623 ft | 223 kts | 211° |
| 2026-04-20 17:50 | 27.92664 | -82.09404 | 10249 ft | 226 kts | 181° |
| 2026-04-20 17:50 | 27.91121 | -82.09046 | 10879 ft | 229 kts | 162° |
| 2026-04-20 17:51 | 27.89624 | -82.08390 | 11506 ft | 232 kts | 157° |
| 2026-04-20 17:51 | 27.88151 | -82.07642 | 12129 ft | 233 kts | 155° |
| 2026-04-20 17:51 | 27.86677 | -82.06859 | 12752 ft | 234 kts | 155° |
| 2026-04-20 17:51 | 27.85203 | -82.06062 | 13382 ft | 235 kts | 155° |
| 2026-04-20 17:52 | 27.83722 | -82.05255 | 14013 ft | 237 kts | 155° |
| 2026-04-20 17:52 | 27.82253 | -82.04453 | 14632 ft | 238 kts | 154° |
| 2026-04-20 17:52 | 27.80748 | -82.03629 | 15177 ft | 242 kts | 154° |
| 2026-04-20 17:52 | 27.79226 | -82.02794 | 15728 ft | 244 kts | 154° |
| 2026-04-20 17:53 | 27.77690 | -82.01950 | 16280 ft | 246 kts | 154° |
| 2026-04-20 17:53 | 27.76141 | -82.01097 | 16833 ft | 249 kts | 154° |
| 2026-04-20 17:53 | 27.74566 | -82.00226 | 17384 ft | 256 kts | 154° |
| 2026-04-20 17:53 | 27.72949 | -81.99331 | 17938 ft | 261 kts | 154° |
| 2026-04-20 17:54 | 27.71308 | -81.98420 | 18487 ft | 265 kts | 154° |
| 2026-04-20 17:54 | 27.69664 | -81.97506 | 19033 ft | 267 kts | 154° |
| 2026-04-20 17:54 | 27.67989 | -81.96574 | 19584 ft | 269 kts | 154° |
| 2026-04-20 17:54 | 27.66306 | -81.95636 | 20134 ft | 270 kts | 154° |
| 2026-04-20 17:55 | 27.64616 | -81.94691 | 20688 ft | 271 kts | 154° |
| 2026-04-20 17:55 | 27.62929 | -81.93747 | 21240 ft | 271 kts | 154° |
| 2026-04-20 17:55 | 27.61240 | -81.92801 | 21790 ft | 271 kts | 154° |
| 2026-04-20 17:55 | 27.59554 | -81.91862 | 22345 ft | 270 kts | 156° |
| 2026-04-20 17:56 | 27.57860 | -81.90947 | 22893 ft | 269 kts | 157° |
| 2026-04-20 17:56 | 27.56160 | -81.90051 | 23427 ft | 270 kts | 155° |
| 2026-04-20 17:56 | 27.54454 | -81.89152 | 23727 ft | 279 kts | 155° |
| 2026-04-20 17:56 | 27.52640 | -81.88197 | 23872 ft | 290 kts | 155° |
| 2026-04-20 17:57 | 27.50801 | -81.87230 | 23934 ft | 300 kts | 155° |
| 2026-04-20 17:57 | 27.48884 | -81.86222 | 23972 ft | 308 kts | 155° |
| 2026-04-20 17:57 | 27.46920 | -81.85190 | 23986 ft | 315 kts | 155° |
| 2026-04-20 17:57 | 27.44919 | -81.84139 | 23993 ft | 319 kts | 155° |
| 2026-04-20 17:58 | 27.42894 | -81.83077 | 23997 ft | 323 kts | 155° |
| 2026-04-20 17:58 | 27.40848 | -81.82004 | 23999 ft | 326 kts | 155° |
| 2026-04-20 17:58 | 27.38794 | -81.80911 | 24000 ft | 328 kts | 155° |
| 2026-04-20 17:58 | 27.36728 | -81.79800 | 24000 ft | 329 kts | 155° |
| 2026-04-20 17:59 | 27.34662 | -81.78682 | 24000 ft | 330 kts | 154° |
| 2026-04-20 17:59 | 27.32591 | -81.77558 | 24000 ft | 331 kts | 154° |
| 2026-04-20 17:59 | 27.30515 | -81.76438 | 24000 ft | 331 kts | 156° |
| 2026-04-20 17:59 | 27.28297 | -81.75838 | 24000 ft | 329 kts | 178° |
| 2026-04-20 18:00 | 27.26007 | -81.75938 | 24027 ft | 329 kts | 185° |
| 2026-04-20 18:00 | 27.23750 | -81.76206 | 24244 ft | 323 kts | 186° |
| 2026-04-20 18:00 | 27.21526 | -81.76350 | 24499 ft | 318 kts | 180° |
| 2026-04-20 18:00 | 27.19345 | -81.76100 | 24509 ft | 323 kts | 168° |
| 2026-04-20 18:01 | 27.17198 | -81.75187 | 23932 ft | 341 kts | 150° |
| 2026-04-20 18:01 | 27.15213 | -81.73612 | 23398 ft | 350 kts | 146° |
| 2026-04-20 18:01 | 27.13184 | -81.72189 | 23561 ft | 338 kts | 149° |
| 2026-04-20 18:01 | 27.11047 | -81.71210 | 23744 ft | 329 kts | 171° |
| 2026-04-20 18:02 | 27.08781 | -81.71132 | 23876 ft | 325 kts | 185° |
| 2026-04-20 18:02 | 27.06531 | -81.71385 | 23940 ft | 325 kts | 188° |
| 2026-04-20 18:02 | 27.04288 | -81.71716 | 23972 ft | 325 kts | 189° |
| 2026-04-20 18:02 | 27.02038 | -81.72059 | 23986 ft | 327 kts | 187° |
| 2026-04-20 18:03 | 26.99771 | -81.72275 | 23994 ft | 328 kts | 185° |
| 2026-04-20 18:03 | 26.97494 | -81.72431 | 23997 ft | 328 kts | 184° |
| 2026-04-20 18:03 | 26.95211 | -81.72565 | 23999 ft | 329 kts | 184° |
| 2026-04-20 18:03 | 26.92920 | -81.72690 | 23999 ft | 329 kts | 184° |
| 2026-04-20 18:04 | 26.90631 | -81.72812 | 24000 ft | 329 kts | 184° |
| 2026-04-20 18:04 | 26.88346 | -81.72931 | 24000 ft | 327 kts | 184° |
| 2026-04-20 18:04 | 26.86077 | -81.73048 | 24000 ft | 326 kts | 184° |
| 2026-04-20 18:04 | 26.83812 | -81.73164 | 24001 ft | 325 kts | 184° |
| 2026-04-20 18:05 | 26.79308 | -81.73333 | 24045 ft | 323 kts | 182° |
| 2026-04-20 18:05 | 26.77087 | -81.73395 | 24021 ft | 323 kts | 183° |
| 2026-04-20 18:05 | 26.74835 | -81.73491 | 24010 ft | 324 kts | 184° |
| 2026-04-20 18:06 | 26.72591 | -81.73599 | 24005 ft | 323 kts | 182° |
| 2026-04-20 18:06 | 26.70342 | -81.73687 | 24003 ft | 323 kts | 181° |
| 2026-04-20 18:06 | 26.68092 | -81.73769 | 24001 ft | 323 kts | 182° |
| 2026-04-20 18:06 | 26.65846 | -81.73906 | 24001 ft | 323 kts | 183° |
| 2026-04-20 18:07 | 26.63603 | -81.74073 | 24000 ft | 323 kts | 183° |
| 2026-04-20 18:07 | 26.61361 | -81.74258 | 24000 ft | 323 kts | 184° |
| 2026-04-20 18:07 | 26.59121 | -81.74458 | 24000 ft | 323 kts | 184° |
| 2026-04-20 18:07 | 26.56881 | -81.74667 | 24000 ft | 323 kts | 184° |
| 2026-04-20 18:08 | 26.54639 | -81.74870 | 24000 ft | 323 kts | 183° |
| 2026-04-20 18:08 | 26.52400 | -81.75069 | 24001 ft | 323 kts | 184° |
| 2026-04-20 18:08 | 26.50160 | -81.75273 | 24001 ft | 323 kts | 184° |
| 2026-04-20 18:08 | 26.47919 | -81.75474 | 24000 ft | 323 kts | 184° |
| 2026-04-20 18:09 | 26.45681 | -81.75669 | 24000 ft | 323 kts | 184° |
| 2026-04-20 18:09 | 26.43440 | -81.75859 | 24000 ft | 323 kts | 184° |
| 2026-04-20 18:09 | 26.41200 | -81.76048 | 24000 ft | 323 kts | 184° |
| 2026-04-20 18:09 | 26.38988 | -81.76233 | 24000 ft | 323 kts | 184° |
| 2026-04-20 18:10 | 26.36748 | -81.76421 | 24000 ft | 323 kts | 184° |
| 2026-04-20 18:10 | 26.34504 | -81.76610 | 24000 ft | 322 kts | 184° |
| 2026-04-20 18:10 | 26.32266 | -81.76798 | 24000 ft | 322 kts | 185° |
| 2026-04-20 18:10 | 26.30024 | -81.76987 | 24000 ft | 322 kts | 185° |
| 2026-04-20 18:11 | 26.27787 | -81.77176 | 24000 ft | 322 kts | 185° |
| 2026-04-20 18:11 | 26.25547 | -81.77365 | 24000 ft | 322 kts | 185° |
| 2026-04-20 18:11 | 26.23299 | -81.77555 | 23817 ft | 327 kts | 185° |
| 2026-04-20 18:11 | 26.21109 | -81.77741 | 22792 ft | 308 kts | 185° |
| 2026-04-20 18:12 | 26.18928 | -81.77927 | 21571 ft | 313 kts | 185° |
| 2026-04-20 18:12 | 26.16824 | -81.78106 | 20973 ft | 295 kts | 185° |
| 2026-04-20 18:12 | 26.14830 | -81.78275 | 20372 ft | 281 kts | 185° |
| 2026-04-20 18:12 | 26.12921 | -81.78435 | 19771 ft | 270 kts | 185° |
| 2026-04-20 18:13 | 26.11080 | -81.78589 | 19168 ft | 261 kts | 185° |
| 2026-04-20 18:13 | 26.09293 | -81.78739 | 18566 ft | 254 kts | 185° |
| 2026-04-20 18:13 | 26.08136 | -81.78835 | 18168 ft | 250 kts | 185° |
| 2026-04-20 18:13 | 26.06414 | -81.78978 | 17567 ft | 252 kts | 185° |
| 2026-04-20 18:14 | 26.04690 | -81.79122 | 16964 ft | 243 kts | 185° |
| 2026-04-20 18:14 | 26.02439 | -81.79309 | 16163 ft | 246 kts | 185° |
| 2026-04-20 18:14 | 26.00759 | -81.79449 | 15724 ft | 241 kts | 185° |
| 2026-04-20 18:14 | 25.99623 | -81.79542 | 15436 ft | 245 kts | 185° |
| 2026-04-20 18:15 | 25.97911 | -81.79684 | 15206 ft | 247 kts | 185° |
| 2026-04-20 18:15 | 25.96202 | -81.79821 | 15098 ft | 244 kts | 183° |
| 2026-04-20 18:15 | 25.94530 | -81.79521 | 15046 ft | 247 kts | 163° |
| 2026-04-20 18:15 | 25.92885 | -81.78903 | 15022 ft | 251 kts | 160° |
| 2026-04-20 18:16 | 25.91268 | -81.78228 | 15011 ft | 253 kts | 159° |
| 2026-04-20 18:16 | 25.89625 | -81.77516 | 15006 ft | 254 kts | 159° |
| 2026-04-20 18:16 | 25.87982 | -81.76793 | 15005 ft | 254 kts | 159° |
| 2026-04-20 18:16 | 25.86338 | -81.76065 | 15001 ft | 255 kts | 159° |
| 2026-04-20 18:17 | 25.84691 | -81.75333 | 15001 ft | 255 kts | 159° |
| 2026-04-20 18:17 | 25.83041 | -81.74600 | 15000 ft | 255 kts | 159° |
| 2026-04-20 18:17 | 25.81395 | -81.73868 | 15001 ft | 255 kts | 159° |
| 2026-04-20 18:17 | 25.79748 | -81.73136 | 15000 ft | 255 kts | 159° |
| 2026-04-20 18:18 | 25.78103 | -81.72405 | 14999 ft | 255 kts | 159° |
| 2026-04-20 18:18 | 25.76460 | -81.71674 | 14999 ft | 254 kts | 159° |
| 2026-04-20 18:18 | 25.74816 | -81.70944 | 14999 ft | 254 kts | 159° |
| 2026-04-20 18:18 | 25.73167 | -81.70212 | 15002 ft | 254 kts | 159° |
| 2026-04-20 18:19 | 25.71523 | -81.69481 | 15002 ft | 254 kts | 159° |
| 2026-04-20 18:19 | 25.69882 | -81.68753 | 15002 ft | 254 kts | 159° |
| 2026-04-20 18:19 | 25.68264 | -81.68034 | 14999 ft | 254 kts | 159° |
| 2026-04-20 18:19 | 25.66623 | -81.67306 | 15001 ft | 254 kts | 159° |
| 2026-04-20 18:20 | 25.64983 | -81.66578 | 15001 ft | 254 kts | 159° |
| 2026-04-20 18:20 | 25.63344 | -81.65851 | 14999 ft | 254 kts | 159° |
| 2026-04-20 18:20 | 25.61706 | -81.65124 | 14999 ft | 254 kts | 159° |
| 2026-04-20 18:20 | 25.60067 | -81.64397 | 15000 ft | 253 kts | 159° |
| 2026-04-20 18:21 | 25.58431 | -81.63672 | 14999 ft | 253 kts | 159° |
| 2026-04-20 18:21 | 25.56793 | -81.62945 | 15001 ft | 253 kts | 159° |
| 2026-04-20 18:21 | 25.55157 | -81.62220 | 14999 ft | 253 kts | 159° |
| 2026-04-20 18:21 | 25.53521 | -81.61495 | 15001 ft | 253 kts | 159° |
| 2026-04-20 18:22 | 25.51886 | -81.60771 | 14999 ft | 253 kts | 159° |
| 2026-04-20 18:22 | 25.50221 | -81.60169 | 15000 ft | 251 kts | 173° |
| 2026-04-20 18:22 | 25.48478 | -81.60088 | 15000 ft | 251 kts | 181° |
| 2026-04-20 18:22 | 25.46749 | -81.60132 | 15002 ft | 251 kts | 182° |
| 2026-04-20 18:23 | 25.44997 | -81.60215 | 14999 ft | 251 kts | 183° |
| 2026-04-20 18:23 | 25.43251 | -81.60315 | 14999 ft | 252 kts | 184° |
| 2026-04-20 18:23 | 25.41501 | -81.60421 | 15000 ft | 252 kts | 184° |
| 2026-04-20 18:23 | 25.39751 | -81.60530 | 14999 ft | 252 kts | 184° |
| 2026-04-20 18:24 | 25.37999 | -81.60640 | 14999 ft | 252 kts | 184° |
| 2026-04-20 18:24 | 25.36251 | -81.60751 | 15004 ft | 252 kts | 184° |
| 2026-04-20 18:24 | 25.34498 | -81.60862 | 15002 ft | 252 kts | 184° |
| 2026-04-20 18:24 | 25.32751 | -81.60972 | 14999 ft | 252 kts | 184° |
| 2026-04-20 18:25 | 25.31003 | -81.61083 | 14999 ft | 251 kts | 184° |
| 2026-04-20 18:25 | 25.29258 | -81.61193 | 15000 ft | 251 kts | 184° |
| 2026-04-20 18:25 | 25.27514 | -81.61303 | 14999 ft | 251 kts | 184° |
| 2026-04-20 18:25 | 25.25768 | -81.61413 | 15001 ft | 251 kts | 184° |
| 2026-04-20 18:26 | 25.24049 | -81.61521 | 15000 ft | 251 kts | 184° |
| 2026-04-20 18:26 | 25.22304 | -81.61630 | 14999 ft | 250 kts | 184° |
| 2026-04-20 18:26 | 25.20564 | -81.61740 | 15000 ft | 250 kts | 184° |
| 2026-04-20 18:26 | 25.18825 | -81.61849 | 14999 ft | 250 kts | 184° |
| 2026-04-20 18:27 | 25.17083 | -81.61958 | 14999 ft | 250 kts | 184° |
| 2026-04-20 18:27 | 25.15343 | -81.62067 | 15003 ft | 250 kts | 184° |
| 2026-04-20 18:27 | 25.13604 | -81.62175 | 15003 ft | 250 kts | 184° |
| 2026-04-20 18:27 | 25.11887 | -81.62283 | 15000 ft | 250 kts | 184° |
| 2026-04-20 18:28 | 25.10148 | -81.62391 | 15001 ft | 250 kts | 184° |
| 2026-04-20 18:28 | 25.08410 | -81.62500 | 14999 ft | 250 kts | 184° |
| 2026-04-20 18:28 | 25.06670 | -81.62608 | 14999 ft | 250 kts | 184° |
| 2026-04-20 18:28 | 25.04933 | -81.62717 | 14999 ft | 250 kts | 184° |
| 2026-04-20 18:29 | 25.03196 | -81.62825 | 14999 ft | 250 kts | 184° |
| 2026-04-20 18:29 | 25.01460 | -81.62933 | 14999 ft | 250 kts | 184° |
| 2026-04-20 18:29 | 24.99721 | -81.63042 | 14999 ft | 250 kts | 184° |
| 2026-04-20 18:29 | 24.97984 | -81.63150 | 14999 ft | 250 kts | 184° |
| 2026-04-20 18:30 | 24.96248 | -81.63258 | 14999 ft | 250 kts | 184° |
| 2026-04-20 18:30 | 24.94514 | -81.63366 | 15001 ft | 250 kts | 184° |
| 2026-04-20 18:30 | 24.92755 | -81.63493 | 14625 ft | 262 kts | 188° |
| 2026-04-20 18:30 | 24.91010 | -81.64238 | 13924 ft | 279 kts | 215° |
| 2026-04-20 18:31 | 24.89584 | -81.65740 | 13226 ft | 289 kts | 229° |
| 2026-04-20 18:31 | 24.88295 | -81.67428 | 12531 ft | 294 kts | 231° |
| 2026-04-20 18:31 | 24.87017 | -81.69199 | 11828 ft | 296 kts | 232° |
| 2026-04-20 18:31 | 24.85752 | -81.70993 | 11128 ft | 297 kts | 232° |
| 2026-04-20 18:32 | 24.84494 | -81.72794 | 10425 ft | 296 kts | 233° |
| 2026-04-20 18:32 | 24.83257 | -81.74573 | 9723 ft | 286 kts | 233° |
| 2026-04-20 18:32 | 24.82071 | -81.76282 | 9025 ft | 275 kts | 233° |
| 2026-04-20 18:32 | 24.80927 | -81.77932 | 8315 ft | 268 kts | 233° |
| 2026-04-20 18:33 | 24.79819 | -81.79529 | 7623 ft | 262 kts | 233° |
| 2026-04-20 18:33 | 24.78723 | -81.81110 | 6927 ft | 258 kts | 233° |
| 2026-04-20 18:33 | 24.77640 | -81.82670 | 6217 ft | 254 kts | 233° |
| 2026-04-20 18:33 | 24.76572 | -81.84210 | 5517 ft | 251 kts | 233° |
| 2026-04-20 18:34 | 24.75524 | -81.85720 | 4980 ft | 243 kts | 233° |
| 2026-04-20 18:34 | 24.74534 | -81.87147 | 4726 ft | 225 kts | 233° |
| 2026-04-20 18:34 | 24.73622 | -81.88459 | 4608 ft | 206 kts | 233° |
| 2026-04-20 18:34 | 24.72790 | -81.89655 | 4552 ft | 188 kts | 233° |
| 2026-04-20 18:35 | 24.72025 | -81.90754 | 4525 ft | 174 kts | 233° |
| 2026-04-20 18:35 | 24.71313 | -81.91777 | 4512 ft | 162 kts | 233° |
| 2026-04-20 18:35 | 24.70651 | -81.92725 | 4507 ft | 151 kts | 233° |
| 2026-04-20 18:35 | 24.70025 | -81.93621 | 4502 ft | 153 kts | 233° |
| 2026-04-20 18:36 | 24.69323 | -81.94624 | 4502 ft | 181 kts | 233° |
| 2026-04-20 18:36 | 24.68518 | -81.95779 | 4502 ft | 199 kts | 233° |
| 2026-04-20 18:36 | 24.67645 | -81.97033 | 4500 ft | 213 kts | 233° |
| 2026-04-20 18:36 | 24.66717 | -81.98367 | 4500 ft | 225 kts | 233° |
| 2026-04-20 18:37 | 24.65745 | -81.99768 | 4499 ft | 235 kts | 233° |
| 2026-04-20 18:37 | 24.64737 | -82.01221 | 4501 ft | 242 kts | 233° |
| 2026-04-20 18:37 | 24.63588 | -82.02567 | 4498 ft | 239 kts | 214° |
| 2026-04-20 18:37 | 24.62058 | -82.03121 | 4500 ft | 230 kts | 182° |
| 2026-04-20 18:38 | 24.60546 | -82.02718 | 4502 ft | 223 kts | 152° |
| 2026-04-20 18:38 | 24.59267 | -82.01801 | 4500 ft | 217 kts | 144° |
| 2026-04-20 18:38 | 24.58071 | -82.00825 | 4502 ft | 212 kts | 143° |
| 2026-04-20 18:38 | 24.56920 | -81.99847 | 4500 ft | 207 kts | 142° |
| 2026-04-20 18:39 | 24.55798 | -81.98877 | 4502 ft | 204 kts | 142° |
| 2026-04-20 18:39 | 24.54694 | -81.97910 | 4174 ft | 205 kts | 140° |
| 2026-04-20 18:39 | 24.53887 | -81.96594 | 3453 ft | 215 kts | 107° |
| 2026-04-20 18:39 | 24.53770 | -81.94984 | 3057 ft | 207 kts | 88° |
| 2026-04-20 18:40 | 24.53844 | -81.93471 | 2753 ft | 198 kts | 85° |
| 2026-04-20 18:40 | 24.53959 | -81.91965 | 2357 ft | 195 kts | 84° |
| 2026-04-20 18:40 | 24.54311 | -81.90588 | 2167 ft | 182 kts | 66° |
| 2026-04-20 18:40 | 24.54828 | -81.89374 | 2080 ft | 167 kts | 63° |
| 2026-04-20 18:41 | 24.55323 | -81.88228 | 2036 ft | 163 kts | 71° |
| 2026-04-20 18:41 | 24.55517 | -81.87064 | 1920 ft | 155 kts | 81° |
| 2026-04-20 18:41 | 24.55661 | -81.85886 | 1699 ft | 153 kts | 82° |
| 2026-04-20 18:41 | 24.55783 | -81.84761 | 1594 ft | 149 kts | 83° |
| 2026-04-20 18:42 | 24.55864 | -81.83685 | 1542 ft | 126 kts | 87° |
| 2026-04-20 18:42 | 24.55909 | -81.82748 | 1522 ft | 122 kts | 88° |
| 2026-04-20 18:42 | 24.55619 | -81.81911 | 1219 ft | 123 kts | 118° |
| 2026-04-20 18:42 | 24.55566 | -81.81031 | 965 ft | 111 kts | 87° |
| 2026-04-20 18:43 | 24.55583 | -81.80192 | 789 ft | 115 kts | 90° |
| 2026-04-20 18:43 | 24.55582 | -81.79348 | 552 ft | 109 kts | 89° |
| 2026-04-20 18:43 | 24.55589 | -81.78542 | 406 ft | 102 kts | 89° |
| 2026-04-20 18:43 | 24.55611 | -81.77743 | 269 ft | 111 kts | 87° |
| 2026-04-20 18:44 | 24.55606 | -81.76950 | 101 ft | 101 kts | 89° |
| 2026-04-20 18:44 | 24.55613 | -81.76216 | 3 ft | 87 kts | 89° |
| 2026-04-20 18:44 | 24.55616 | -81.75833 | 8 ft | 32 kts | 89° |
| 2026-04-20 18:44 | 24.55618 | -81.75655 | 12 ft | 15 kts | 89° |
| 2026-04-20 18:45 | 24.55597 | -81.75588 | 13 ft | 11 kts | 163° |
| 2026-04-20 18:45 | 24.55534 | -81.75607 | 12 ft | 13 kts | 241° |
| 2026-04-20 18:45 | 24.55506 | -81.75680 | 12 ft | 10 kts | 193° |
| 2026-04-20 18:45 | 24.55495 | -81.75726 | 12 ft | 6 kts | 262° |
| 2026-04-20 18:46 | 24.55446 | -81.75733 | 12 ft | 12 kts | 177° |
| 2026-04-20 18:46 | 24.55455 | -81.75712 | 12 ft | 0 kts | 0° |